Terminal Aerodrome Forecast
Issued by NWS Cleveland, OH

Home | Current Version | Previous Version | Text Only | Print | Product List | Glossary On
Versions: 1 2 3 4 5 6 7 8 9 10 11 12 13 14 15 16 17 18 19
000
FTUS41 KCLE 211700
TAFYNG
TAF
KYNG 211730Z 2118/2218 33012G20KT 2SM -RA OVC006
      TEMPO 2118/2122 4SM -RA BR SCT006 OVC015
     FM212200 33010G18KT P6SM -RA OVC015
     FM220300 35010KT P6SM OVC015
      TEMPO 2203/2207 -RA OVC008
     FM221200 36010KT P6SM OVC025=

USA.gov is the U.S. government's official web portal to all federal, state and local government web resources and services.